Altoona, Wisconsin
Current Conditions -  °F | °C
As of 8:56 PM on Saturday 25 Oct 2014 (Local Time) from KEAU Reporting Station
Clear Clear  
Wind Chill: 50°   Ceiling: Unl
Heat Index: 50°   Visibility: 10mi
Dew Point: 26°   Wind: 9mph
Humidity: 39%   Direction: 300°WNW
Pressure: 30"   Gusts: NA
Location:  44.81°N, 91.43°W
Report Text: KEAU 260156Z AUTO 30008KT 10SM CLR 10/M03 A3000 RMK AO2 SLP161 T01001033
Loading
Personal Weather Stations






























Interactive Weather Map New forecast layout! Learn more

10-Day Weather Forecast

Advertisements
Track Severe Weather on mobile